createdAt,value
2019-03-01T00:00:27.699Z,17.27
2019-03-01T00:01:28.275Z,17.24
2019-03-01T00:02:28.848Z,17.27
2019-03-01T00:03:29.427Z,17.27
2019-03-01T00:04:30.039Z,17.26
2019-03-01T00:05:30.664Z,17.26
2019-03-01T00:06:31.237Z,17.20
2019-03-01T00:07:31.865Z,17.23
2019-03-01T00:08:32.435Z,17.22
2019-03-01T00:09:33.010Z,17.31
2019-03-01T00:10:33.587Z,17.26
2019-03-01T00:11:34.155Z,17.26
2019-03-01T00:12:34.732Z,17.22
2019-03-01T00:13:35.352Z,17.26
2019-03-01T00:14:35.924Z,17.26
2019-03-01T00:15:36.495Z,17.24
2019-03-01T00:16:37.070Z,17.24
2019-03-01T00:17:37.642Z,17.19
2019-03-01T00:18:38.215Z,17.24
2019-03-01T00:19:38.787Z,17.23
2019-03-01T00:20:39.412Z,17.08
2019-03-01T00:21:40.024Z,17.14
2019-03-01T00:22:40.596Z,17.06
2019-03-01T00:23:41.169Z,17.22
2019-03-01T00:24:41.807Z,17.12
2019-03-01T00:25:42.350Z,17.20
2019-03-01T00:26:42.975Z,17.19
2019-03-01T00:27:43.548Z,17.22
2019-03-01T00:28:44.121Z,17.16
2019-03-01T00:29:44.734Z,17.24
2019-03-01T00:30:45.406Z,17.26
2019-03-01T00:31:45.982Z,17.06
2019-03-01T00:32:46.555Z,17.16
2019-03-01T00:33:47.181Z,17.11
2019-03-01T00:34:47.801Z,17.15
2019-03-01T00:35:48.378Z,17.15
2019-03-01T00:36:48.950Z,17.15
2019-03-01T00:37:49.525Z,17.26
2019-03-01T00:38:50.099Z,17.19
2019-03-01T00:39:50.673Z,17.19
2019-03-01T00:40:51.248Z,17.20
2019-03-01T00:41:51.822Z,17.09
2019-03-01T00:42:52.397Z,17.23
2019-03-01T00:43:52.972Z,17.20
2019-03-01T00:44:53.564Z,17.19
2019-03-01T00:45:54.138Z,17.11
2019-03-01T00:46:54.761Z,17.27
2019-03-01T00:47:55.330Z,17.15
2019-03-01T00:48:55.983Z,17.15
2019-03-01T00:49:56.516Z,17.24
2019-03-01T00:50:57.092Z,17.08
2019-03-01T00:51:57.705Z,17.08
2019-03-01T00:52:58.277Z,17.12
2019-03-01T00:53:58.902Z,17.20
2019-03-01T00:54:59.477Z,17.08
2019-03-01T00:56:00.045Z,17.12
2019-03-01T00:57:00.622Z,17.16
2019-03-01T00:58:01.190Z,17.15
2019-03-01T00:59:01.771Z,17.08
2019-03-01T01:00:02.334Z,17.08
2019-03-01T01:01:02.906Z,17.09
2019-03-01T01:02:03.482Z,17.12
2019-03-01T01:03:04.059Z,17.09
2019-03-01T01:04:04.629Z,17.15
2019-03-01T01:05:05.204Z,17.01
2019-03-01T01:06:05.778Z,17.11
2019-03-01T01:07:06.348Z,17.09
2019-03-01T01:08:06.921Z,17.11
2019-03-01T01:09:07.495Z,17.14
2019-03-01T01:10:08.163Z,17.14
2019-03-01T01:11:08.736Z,17.09
2019-03-01T01:12:09.311Z,17.09
2019-03-01T01:13:09.886Z,17.15
2019-03-01T01:14:10.458Z,17.14
2019-03-01T01:15:11.084Z,17.12
2019-03-01T01:16:11.656Z,17.08
2019-03-01T01:17:12.232Z,17.11
2019-03-01T01:18:12.801Z,17.05
2019-03-01T01:19:13.374Z,17.06
2019-03-01T01:20:13.947Z,17.05
2019-03-01T01:21:14.519Z,17.05
2019-03-01T01:22:15.090Z,17.05
2019-03-01T01:23:15.713Z,17.12
2019-03-01T01:24:16.285Z,17.05
2019-03-01T01:25:16.859Z,17.11
2019-03-01T01:26:17.472Z,17.01
2019-03-01T01:27:18.047Z,17.05
2019-03-01T01:28:18.669Z,17.04
2019-03-01T01:29:19.239Z,17.12
2019-03-01T01:30:19.866Z,17.06
2019-03-01T01:31:20.438Z,17.11
2019-03-01T01:32:21.014Z,17.12
2019-03-01T01:33:21.590Z,17.08
2019-03-01T01:34:22.160Z,17.05
2019-03-01T01:35:22.733Z,17.08
2019-03-01T01:36:23.309Z,17.05
2019-03-01T01:37:23.936Z,17.08
2019-03-01T01:38:24.485Z,17.11
2019-03-01T01:39:25.058Z,17.11
2019-03-01T01:40:25.636Z,17.08
2019-03-01T01:41:26.206Z,17.05
2019-03-01T01:42:26.783Z,17.06
2019-03-01T01:43:27.405Z,17.04
2019-03-01T01:44:28.031Z,17.08
2019-03-01T01:45:28.657Z,17.05
2019-03-01T01:46:29.227Z,17.08
2019-03-01T01:47:29.848Z,17.08
2019-03-01T01:48:30.376Z,17.04
2019-03-01T01:49:30.953Z,17.06
2019-03-01T01:50:31.522Z,17.09
2019-03-01T01:51:32.096Z,17.11
2019-03-01T01:52:32.667Z,17.05
2019-03-01T01:53:33.240Z,17.06
2019-03-01T01:54:33.815Z,17.06
2019-03-01T01:55:34.386Z,17.09
2019-03-01T01:56:34.958Z,17.06
2019-03-01T01:57:35.532Z,17.14
2019-03-01T01:58:36.103Z,17.09
2019-03-01T01:59:36.677Z,17.05
2019-03-01T02:00:37.252Z,17.05
2019-03-01T02:01:38.025Z,17.01
2019-03-01T02:02:38.600Z,17.01
2019-03-01T02:03:39.215Z,17.08
2019-03-01T02:04:39.838Z,17.05
2019-03-01T02:05:40.416Z,17.04
2019-03-01T02:06:40.992Z,17.05
2019-03-01T02:07:41.604Z,17.04
2019-03-01T02:08:42.178Z,17.01
2019-03-01T02:09:42.748Z,17.02
2019-03-01T02:10:43.324Z,17.05
2019-03-01T02:11:43.896Z,17.06
2019-03-01T02:12:44.469Z,16.96
2019-03-01T02:13:45.042Z,17.06
2019-03-01T02:14:45.615Z,17.02
2019-03-01T02:15:46.189Z,16.96
2019-03-01T02:16:46.761Z,16.99
2019-03-01T02:17:47.366Z,17.06
2019-03-01T02:18:57.301Z,17.02
2019-03-01T02:19:48.575Z,17.02
2019-03-01T02:20:49.146Z,16.99
2019-03-01T02:21:49.770Z,16.96
2019-03-01T02:22:50.362Z,16.97
2019-03-01T02:23:50.916Z,16.96
2019-03-01T02:24:51.539Z,17.01
2019-03-01T02:25:52.111Z,16.93
2019-03-01T02:26:52.684Z,16.99
2019-03-01T02:27:53.256Z,16.94
2019-03-01T02:28:53.883Z,16.94
2019-03-01T02:29:54.450Z,16.99
2019-03-01T02:30:55.022Z,16.97
2019-03-01T02:31:55.595Z,16.99
2019-03-01T02:32:56.166Z,16.97
2019-03-01T02:33:56.738Z,16.99
2019-03-01T02:34:57.311Z,16.97
2019-03-01T02:35:57.884Z,16.96
2019-03-01T02:36:58.457Z,16.96
2019-03-01T02:37:59.027Z,16.99
2019-03-01T02:38:59.653Z,16.97
2019-03-01T02:40:00.420Z,16.94
2019-03-01T02:41:00.954Z,16.94
2019-03-01T02:42:01.556Z,16.94
2019-03-01T02:43:02.102Z,16.94
2019-03-01T02:44:02.673Z,17.02
2019-03-01T02:45:03.249Z,16.94
2019-03-01T02:46:03.821Z,16.96
2019-03-01T02:47:04.596Z,16.94
2019-03-01T02:48:05.172Z,16.91
2019-03-01T02:49:05.786Z,16.87
2019-03-01T02:50:06.360Z,16.89
2019-03-01T02:51:06.935Z,16.94
2019-03-01T02:52:07.550Z,16.97
2019-03-01T02:53:08.122Z,16.97
2019-03-01T02:54:08.697Z,16.93
2019-03-01T02:55:09.269Z,16.93
2019-03-01T02:56:09.838Z,16.90
2019-03-01T02:57:10.410Z,16.93
2019-03-01T02:58:10.984Z,16.97
2019-03-01T02:59:11.556Z,16.90
2019-03-01T03:00:12.323Z,16.86
2019-03-01T03:01:12.934Z,17.06
2019-03-01T03:02:13.555Z,16.90
2019-03-01T03:03:14.126Z,17.02
2019-03-01T03:04:14.699Z,16.93
2019-03-01T03:05:15.273Z,16.93
2019-03-01T03:06:15.902Z,16.97
2019-03-01T03:07:16.460Z,16.90
2019-03-01T03:08:17.031Z,16.89
2019-03-01T03:09:17.612Z,16.96
2019-03-01T03:10:18.177Z,16.90
2019-03-01T03:11:18.762Z,16.87
2019-03-01T03:12:19.320Z,16.86
2019-03-01T03:13:19.893Z,16.94
2019-03-01T03:14:20.465Z,16.86
2019-03-01T03:15:21.040Z,16.86
2019-03-01T03:16:21.685Z,16.89
2019-03-01T03:17:22.278Z,16.94
2019-03-01T03:18:22.890Z,16.91
2019-03-01T03:19:23.661Z,16.90
2019-03-01T03:20:24.232Z,16.97
2019-03-01T03:21:24.808Z,16.86
2019-03-01T03:22:25.418Z,16.93
2019-03-01T03:23:25.992Z,16.86
2019-03-01T03:24:26.565Z,16.87
2019-03-01T03:25:27.143Z,16.89
2019-03-01T03:26:27.710Z,16.90
2019-03-01T03:27:28.292Z,16.91
2019-03-01T03:28:28.857Z,16.93
2019-03-01T03:29:29.431Z,16.94
2019-03-01T03:30:30.008Z,16.91
2019-03-01T03:31:30.578Z,16.96
2019-03-01T03:32:31.199Z,16.97
2019-03-01T03:33:31.793Z,16.91
2019-03-01T03:34:32.383Z,16.90
2019-03-01T03:35:32.995Z,16.93
2019-03-01T03:36:33.569Z,16.87
2019-03-01T03:37:34.140Z,16.89
2019-03-01T03:38:34.719Z,16.90
2019-03-01T03:39:35.329Z,16.87
2019-03-01T03:40:35.953Z,16.91
2019-03-01T03:41:36.527Z,16.90
2019-03-01T03:42:37.105Z,16.89
2019-03-01T03:43:37.721Z,17.02
2019-03-01T03:44:38.292Z,16.91
2019-03-01T03:45:38.867Z,16.94
2019-03-01T03:46:39.437Z,16.94
2019-03-01T03:47:40.012Z,16.89
2019-03-01T03:48:40.586Z,16.94
2019-03-01T03:49:41.203Z,16.91
2019-03-01T03:50:41.781Z,16.97
2019-03-01T03:51:42.589Z,16.94
2019-03-01T03:52:43.160Z,17.02
2019-03-01T03:53:43.732Z,17.02
2019-03-01T03:54:44.321Z,16.90
2019-03-01T03:55:44.880Z,16.90
2019-03-01T03:56:45.544Z,16.93
2019-03-01T03:57:46.127Z,16.94
2019-03-01T03:58:46.691Z,16.94
2019-03-01T03:59:47.265Z,16.86
2019-03-01T04:00:47.836Z,16.91
2019-03-01T04:01:48.413Z,16.89
2019-03-01T04:02:48.986Z,16.90
2019-03-01T04:03:49.562Z,16.91
2019-03-01T04:04:50.186Z,16.97
2019-03-01T04:05:50.816Z,16.94
2019-03-01T04:06:51.415Z,16.96
2019-03-01T04:07:51.959Z,16.99
2019-03-01T04:08:52.532Z,16.94
2019-03-01T04:09:53.108Z,16.94
2019-03-01T04:10:53.723Z,16.93
2019-03-01T04:11:54.297Z,16.99
2019-03-01T04:12:54.921Z,16.97
2019-03-01T04:13:55.494Z,16.97
2019-03-01T04:14:56.067Z,16.91
2019-03-01T04:15:56.638Z,16.99
2019-03-01T04:16:57.211Z,16.97
2019-03-01T04:17:57.786Z,16.91
2019-03-01T04:18:58.355Z,16.91
2019-03-01T04:19:58.928Z,17.04
2019-03-01T04:20:59.500Z,16.91
2019-03-01T04:22:00.072Z,16.87
2019-03-01T04:23:01.497Z,16.87
2019-03-01T04:24:02.067Z,16.87
2019-03-01T04:25:02.640Z,16.93
2019-03-01T04:26:03.214Z,16.93
2019-03-01T04:27:03.980Z,16.89
2019-03-01T04:28:04.554Z,16.94
2019-03-01T04:29:05.125Z,16.97
2019-03-01T04:30:05.710Z,16.89
2019-03-01T04:31:06.312Z,16.93
2019-03-01T04:32:06.886Z,16.93
2019-03-01T04:33:07.458Z,16.90
2019-03-01T04:34:08.033Z,16.93
2019-03-01T04:35:08.606Z,16.93
2019-03-01T04:36:09.180Z,16.87
2019-03-01T04:37:09.753Z,16.90
2019-03-01T04:38:10.330Z,16.90
2019-03-01T04:39:10.900Z,16.93
2019-03-01T04:40:11.502Z,16.97
2019-03-01T04:41:12.049Z,16.93
2019-03-01T04:42:12.620Z,16.96
2019-03-01T04:43:13.192Z,16.84
2019-03-01T04:44:13.922Z,17.01
2019-03-01T04:45:14.488Z,16.96
2019-03-01T04:46:15.059Z,16.96
2019-03-01T04:47:15.635Z,16.94
2019-03-01T04:48:16.209Z,16.91
2019-03-01T04:49:16.777Z,16.90
2019-03-01T04:50:17.352Z,16.90
2019-03-01T04:51:17.922Z,16.86
2019-03-01T04:52:18.545Z,16.96
2019-03-01T04:53:19.167Z,16.99
2019-03-01T04:54:19.792Z,16.94
2019-03-01T04:55:20.365Z,16.94
2019-03-01T04:56:21.860Z,16.99
2019-03-01T04:57:22.471Z,16.97
2019-03-01T04:58:23.046Z,16.93
2019-03-01T04:59:23.618Z,16.94
2019-03-01T05:00:24.189Z,16.96
2019-03-01T05:01:24.761Z,16.93
2019-03-01T05:02:25.334Z,16.93
2019-03-01T05:03:25.957Z,16.93
2019-03-01T05:04:26.533Z,16.99
2019-03-01T05:05:27.103Z,16.97
2019-03-01T05:06:27.675Z,16.93
2019-03-01T05:07:28.249Z,16.96
2019-03-01T05:08:28.822Z,17.01
2019-03-01T05:09:29.446Z,16.91
2019-03-01T05:10:30.020Z,16.87
2019-03-01T05:11:30.594Z,16.81
2019-03-01T05:12:31.170Z,16.93
2019-03-01T05:13:31.793Z,16.99
2019-03-01T05:14:32.414Z,17.02
2019-03-01T05:15:32.991Z,16.90
2019-03-01T05:16:33.563Z,17.01
2019-03-01T05:17:34.134Z,16.96
2019-03-01T05:18:34.709Z,16.97
2019-03-01T05:19:35.283Z,16.99
2019-03-01T05:20:35.855Z,16.84
2019-03-01T05:21:36.428Z,16.94
2019-03-01T05:22:37.005Z,16.96
2019-03-01T05:23:37.577Z,16.89
2019-03-01T05:24:38.150Z,16.87
2019-03-01T05:25:38.760Z,16.99
2019-03-01T05:26:39.333Z,16.97
2019-03-01T05:27:39.908Z,16.99
2019-03-01T05:28:40.530Z,16.94
2019-03-01T05:29:41.101Z,16.93
2019-03-01T05:30:41.672Z,16.97
2019-03-01T05:31:42.245Z,16.99
2019-03-01T05:32:42.817Z,16.97
2019-03-01T05:33:43.392Z,16.96
2019-03-01T05:34:43.964Z,16.96
2019-03-01T05:35:44.536Z,16.93
2019-03-01T05:36:45.162Z,16.96
2019-03-01T05:37:45.739Z,16.93
2019-03-01T05:38:46.308Z,16.93
2019-03-01T05:39:46.882Z,16.99
2019-03-01T05:40:47.455Z,17.02
2019-03-01T05:41:48.030Z,16.93
2019-03-01T05:42:48.605Z,16.91
2019-03-01T05:43:49.179Z,16.94
2019-03-01T05:44:49.756Z,16.84
2019-03-01T05:45:50.327Z,16.90
2019-03-01T05:46:50.952Z,16.87
2019-03-01T05:47:51.525Z,16.93
2019-03-01T05:48:52.098Z,16.86
2019-03-01T05:49:52.711Z,16.90
2019-03-01T05:50:53.284Z,16.78
2019-03-01T05:51:53.861Z,16.90
2019-03-01T05:52:54.479Z,16.89
2019-03-01T05:53:55.053Z,16.84
2019-03-01T05:54:55.624Z,16.89
2019-03-01T05:55:56.201Z,16.83
2019-03-01T05:56:56.816Z,16.91
2019-03-01T05:57:57.390Z,16.94
2019-03-01T05:58:57.962Z,16.90
2019-03-01T05:59:58.536Z,16.87
2019-03-01T06:00:59.113Z,16.79
2019-03-01T06:01:59.684Z,16.90
2019-03-01T06:03:00.256Z,16.84
2019-03-01T06:04:00.831Z,16.81
2019-03-01T06:05:01.402Z,16.93
2019-03-01T06:06:01.975Z,16.91
2019-03-01T06:07:02.548Z,16.87
2019-03-01T06:08:03.173Z,16.83
2019-03-01T06:09:03.745Z,16.83
2019-03-01T06:10:04.316Z,16.84
2019-03-01T06:11:04.957Z,16.90
2019-03-01T06:12:05.556Z,16.86
2019-03-01T06:13:06.131Z,16.94
2019-03-01T06:14:06.749Z,16.89
2019-03-01T06:15:07.282Z,16.83
2019-03-01T06:16:07.857Z,16.93
2019-03-01T06:17:08.429Z,16.91
2019-03-01T06:18:09.001Z,16.78
2019-03-01T06:19:09.576Z,16.79
2019-03-01T06:20:10.197Z,16.93
2019-03-01T06:21:10.772Z,16.90
2019-03-01T06:22:11.343Z,16.89
2019-03-01T06:23:11.917Z,16.79
2019-03-01T06:24:12.488Z,16.93
2019-03-01T06:25:13.068Z,16.83
2019-03-01T06:26:13.650Z,16.81
2019-03-01T06:27:16.240Z,16.93
2019-03-01T06:28:15.822Z,16.87
2019-03-01T06:29:16.393Z,16.89
2019-03-01T06:30:22.018Z,16.89
2019-03-01T06:31:22.691Z,16.90
2019-03-01T06:32:23.314Z,16.83
2019-03-01T06:33:23.936Z,16.90
2019-03-01T06:34:24.507Z,16.89
2019-03-01T06:35:25.078Z,16.81
2019-03-01T06:36:25.650Z,16.79
2019-03-01T06:37:26.222Z,16.86
2019-03-01T06:38:26.794Z,16.84
2019-03-01T06:39:27.365Z,16.84
2019-03-01T06:40:27.950Z,16.93
2019-03-01T06:41:28.555Z,16.93
2019-03-01T06:42:29.126Z,16.83
2019-03-01T06:43:29.699Z,16.84
2019-03-01T06:44:30.275Z,16.84
2019-03-01T06:45:30.848Z,16.84
2019-03-01T06:46:31.421Z,16.86
2019-03-01T06:47:31.994Z,16.83
2019-03-01T06:48:32.620Z,16.81
2019-03-01T06:49:33.192Z,16.86
2019-03-01T06:50:33.811Z,16.84
2019-03-01T06:51:34.347Z,16.79
2019-03-01T06:52:34.957Z,16.84
2019-03-01T06:53:35.535Z,16.83
2019-03-01T06:54:36.103Z,16.86
2019-03-01T06:55:36.680Z,16.81
2019-03-01T06:56:37.254Z,16.86
2019-03-01T06:57:37.844Z,16.84
2019-03-01T06:58:38.394Z,16.86
2019-03-01T06:59:38.967Z,16.76
2019-03-01T07:00:39.540Z,16.84
2019-03-01T07:01:40.116Z,16.68
2019-03-01T07:02:40.685Z,16.79
2019-03-01T07:03:41.258Z,16.72
2019-03-01T07:04:41.931Z,16.68
2019-03-01T07:05:42.503Z,16.72
2019-03-01T07:06:43.080Z,16.69
2019-03-01T07:07:43.743Z,16.71
2019-03-01T07:08:44.318Z,16.74
2019-03-01T07:09:44.939Z,16.74
2019-03-01T07:10:45.512Z,16.78
2019-03-01T07:11:46.133Z,16.69
2019-03-01T07:12:46.698Z,16.69
2019-03-01T07:13:47.272Z,16.68
2019-03-01T07:14:47.844Z,16.72
2019-03-01T07:15:48.429Z,16.69
2019-03-01T07:16:48.991Z,16.66
2019-03-01T07:17:49.564Z,16.71
2019-03-01T07:18:50.137Z,16.61
2019-03-01T07:19:50.709Z,16.60
2019-03-01T07:20:51.331Z,16.64
2019-03-01T07:21:51.906Z,16.69
2019-03-01T07:22:52.528Z,16.72
2019-03-01T07:23:53.106Z,16.68
2019-03-01T07:24:53.768Z,16.72
2019-03-01T07:25:54.968Z,16.58
2019-03-01T07:26:55.581Z,16.64
2019-03-01T07:27:56.166Z,16.57
2019-03-01T07:28:56.773Z,16.58
2019-03-01T07:29:57.346Z,16.60
2019-03-01T07:30:57.918Z,16.60
2019-03-01T07:31:58.498Z,16.60
2019-03-01T07:32:59.063Z,16.60
2019-03-01T07:33:59.637Z,16.65
2019-03-01T07:35:00.353Z,16.57
2019-03-01T07:36:00.884Z,16.60
2019-03-01T07:37:01.457Z,16.58
2019-03-01T07:38:02.082Z,16.66
2019-03-01T07:39:02.652Z,16.69
2019-03-01T07:40:03.227Z,16.66
2019-03-01T07:41:03.849Z,16.65
2019-03-01T07:42:04.474Z,16.61
2019-03-01T07:43:05.046Z,16.60
2019-03-01T07:44:05.620Z,16.61
2019-03-01T07:45:06.193Z,16.60
2019-03-01T07:46:06.765Z,16.69
2019-03-01T07:47:07.336Z,16.68
2019-03-01T07:48:07.908Z,16.65
2019-03-01T07:49:08.480Z,16.68
2019-03-01T07:50:09.055Z,16.72
2019-03-01T07:51:09.625Z,16.68
2019-03-01T07:52:10.200Z,16.69
2019-03-01T07:53:10.770Z,16.71
2019-03-01T07:54:13.246Z,16.74
2019-03-01T07:55:12.909Z,16.68
2019-03-01T07:56:13.483Z,16.71
2019-03-01T07:57:14.774Z,16.76
2019-03-01T07:58:15.776Z,16.72
2019-03-01T07:59:16.395Z,16.79
2019-03-01T08:00:16.965Z,16.75
2019-03-01T08:01:17.549Z,16.76
2019-03-01T08:02:18.114Z,16.74
2019-03-01T08:03:18.692Z,16.72
2019-03-01T08:04:19.264Z,16.75
2019-03-01T08:05:19.837Z,16.71
2019-03-01T08:06:20.411Z,16.72
2019-03-01T08:07:23.528Z,16.75
2019-03-01T08:08:22.553Z,16.76
2019-03-01T08:09:23.151Z,16.69
2019-03-01T08:10:23.708Z,16.71
2019-03-01T08:11:24.342Z,16.69
2019-03-01T08:12:24.898Z,16.72
2019-03-01T08:13:26.798Z,16.72
2019-03-01T08:14:28.040Z,16.78
2019-03-01T08:15:28.652Z,16.83
2019-03-01T08:16:29.330Z,16.69
2019-03-01T08:17:31.612Z,16.69
2019-03-01T08:18:31.520Z,16.71
2019-03-01T08:19:32.092Z,16.66
2019-03-01T08:20:33.842Z,16.61
2019-03-01T08:21:34.231Z,16.72
2019-03-01T08:22:44.786Z,16.68
2019-03-01T08:23:36.368Z,16.74
2019-03-01T08:24:36.942Z,16.74
2019-03-01T08:25:37.514Z,16.72
2019-03-01T08:26:38.090Z,16.74
2019-03-01T08:27:41.981Z,16.68
2019-03-01T08:28:40.228Z,16.69
2019-03-01T08:29:40.801Z,16.78
2019-03-01T08:30:42.467Z,16.76
2019-03-01T08:31:42.943Z,16.74
2019-03-01T08:32:43.513Z,16.74
2019-03-01T08:33:44.083Z,16.65
2019-03-01T08:34:44.658Z,16.74
2019-03-01T08:35:45.231Z,16.74
2019-03-01T08:36:45.863Z,16.66
2019-03-01T08:37:49.824Z,16.74
2019-03-01T08:38:47.997Z,16.65
2019-03-01T08:39:49.729Z,16.72
2019-03-01T08:40:50.847Z,16.68
2019-03-01T08:41:50.849Z,16.74
2019-03-01T08:42:51.425Z,16.75
2019-03-01T08:43:52.169Z,16.72
2019-03-01T08:44:54.636Z,16.71
2019-03-01T08:45:54.263Z,16.68
2019-03-01T08:46:54.839Z,16.69
2019-03-01T08:47:58.601Z,16.72
2019-03-01T08:48:56.977Z,16.71
2019-03-01T08:49:57.549Z,16.75
2019-03-01T08:50:58.581Z,16.74
2019-03-01T08:52:01.417Z,16.75
2019-03-01T08:52:59.746Z,16.74
2019-03-01T08:54:00.368Z,16.72
2019-03-01T08:55:03.804Z,16.71
2019-03-01T08:56:02.508Z,16.78
2019-03-01T08:57:03.128Z,16.76
2019-03-01T08:58:06.897Z,16.83
2019-03-01T08:59:05.266Z,16.76
2019-03-01T09:00:05.839Z,16.71
2019-03-01T09:01:08.345Z,16.78
2019-03-01T09:02:07.979Z,16.79
2019-03-01T09:03:09.033Z,16.79
2019-03-01T09:04:09.610Z,16.76
2019-03-01T09:05:10.180Z,16.78
2019-03-01T09:06:10.758Z,16.79
2019-03-01T09:07:11.328Z,16.78
2019-03-01T09:08:11.901Z,16.69
2019-03-01T09:09:12.522Z,16.83
2019-03-01T09:10:13.095Z,16.78
2019-03-01T09:11:13.669Z,16.78
2019-03-01T09:12:14.242Z,16.74
2019-03-01T09:13:14.866Z,16.79
2019-03-01T09:14:15.489Z,16.68
2019-03-01T09:15:16.064Z,16.76
2019-03-01T09:16:16.685Z,16.81
2019-03-01T09:17:17.306Z,16.78
2019-03-01T09:18:17.878Z,16.84
2019-03-01T09:19:18.451Z,16.78
2019-03-01T09:20:19.152Z,16.81
2019-03-01T09:21:19.743Z,16.83
2019-03-01T09:22:20.318Z,16.84
2019-03-01T09:23:25.310Z,16.76
2019-03-01T09:24:21.508Z,16.83
2019-03-01T09:25:22.118Z,16.83
2019-03-01T09:26:22.779Z,16.86
2019-03-01T09:27:26.665Z,16.84
2019-03-01T09:28:23.959Z,16.84
2019-03-01T09:29:24.532Z,16.84
2019-03-01T09:30:25.103Z,16.81
2019-03-01T09:31:25.727Z,16.84
2019-03-01T09:32:26.299Z,16.84
2019-03-01T09:33:26.874Z,16.84
2019-03-01T09:34:28.673Z,16.87
2019-03-01T09:35:29.812Z,16.81
2019-03-01T09:36:29.678Z,16.78
2019-03-01T09:37:32.523Z,16.86
2019-03-01T09:38:30.899Z,16.87
2019-03-01T09:39:32.684Z,16.84
2019-03-01T09:40:33.039Z,16.87
2019-03-01T09:41:36.665Z,16.90
2019-03-01T09:42:35.179Z,16.79
2019-03-01T09:43:35.755Z,16.86
2019-03-01T09:44:38.437Z,16.81
2019-03-01T09:45:37.891Z,16.90
2019-03-01T09:46:38.469Z,16.94
2019-03-01T09:47:39.040Z,16.89
2019-03-01T09:48:39.667Z,16.94
2019-03-01T09:49:40.237Z,16.93
2019-03-01T09:50:40.813Z,16.90
2019-03-01T09:51:43.759Z,16.86
2019-03-01T09:52:42.992Z,16.81
2019-03-01T09:53:43.667Z,16.90
2019-03-01T09:54:44.240Z,16.81
2019-03-01T09:55:44.822Z,16.90
2019-03-01T09:56:45.391Z,16.87
2019-03-01T09:57:45.965Z,16.91
2019-03-01T09:58:46.539Z,16.94
2019-03-01T09:59:47.109Z,16.81
2019-03-01T10:00:55.974Z,16.83
2019-03-01T10:01:49.247Z,16.93
2019-03-01T10:02:49.821Z,17.02
2019-03-01T10:03:50.395Z,16.93
2019-03-01T10:04:50.973Z,16.97
2019-03-01T10:05:51.594Z,16.94
2019-03-01T10:06:52.166Z,16.94
2019-03-01T10:07:52.799Z,16.97
2019-03-01T10:08:53.361Z,16.93
2019-03-01T10:09:53.934Z,16.87
2019-03-01T10:10:54.556Z,16.94
2019-03-01T10:11:55.172Z,16.93
2019-03-01T10:12:55.747Z,16.96
2019-03-01T10:13:56.321Z,16.99
2019-03-01T10:14:56.895Z,16.94
2019-03-01T10:15:57.519Z,16.90
2019-03-01T10:16:58.091Z,16.96
2019-03-01T10:17:58.663Z,17.04
2019-03-01T10:18:59.235Z,16.93
2019-03-01T10:19:59.807Z,16.99
2019-03-01T10:21:00.381Z,16.99
2019-03-01T10:22:00.956Z,16.96
2019-03-01T10:23:01.529Z,16.93
2019-03-01T10:24:02.194Z,16.94
2019-03-01T10:25:02.766Z,16.94
2019-03-01T10:26:03.345Z,16.99
2019-03-01T10:27:03.918Z,16.90
2019-03-01T10:28:04.488Z,16.94
2019-03-01T10:29:05.062Z,16.96
2019-03-01T10:30:05.637Z,16.91
2019-03-01T10:31:06.209Z,16.90
2019-03-01T10:32:06.785Z,16.91
2019-03-01T10:33:07.357Z,16.96
2019-03-01T10:34:07.931Z,16.90
2019-03-01T10:35:08.504Z,16.86
2019-03-01T10:36:09.080Z,16.93
2019-03-01T10:37:09.654Z,16.90
2019-03-01T10:38:10.227Z,16.94
2019-03-01T10:39:10.799Z,16.94
2019-03-01T10:40:11.373Z,16.96
2019-03-01T10:41:11.949Z,16.96
2019-03-01T10:42:12.523Z,17.01
2019-03-01T10:43:13.098Z,16.94
2019-03-01T10:44:13.724Z,16.99
2019-03-01T10:45:14.299Z,16.97
2019-03-01T10:46:14.882Z,16.96
2019-03-01T10:47:15.448Z,16.99
2019-03-01T10:48:16.021Z,16.97
2019-03-01T10:49:16.596Z,17.04
2019-03-01T10:50:17.169Z,17.09
2019-03-01T10:51:17.742Z,16.97
2019-03-01T10:52:18.315Z,17.05
2019-03-01T10:53:18.942Z,16.99
2019-03-01T10:54:19.517Z,17.02
2019-03-01T10:55:20.092Z,17.06
2019-03-01T10:56:20.666Z,17.05
2019-03-01T10:57:21.283Z,17.05
2019-03-01T10:58:21.879Z,17.01
2019-03-01T10:59:22.478Z,17.08
2019-03-01T11:00:23.051Z,17.12
2019-03-01T11:01:23.677Z,17.06
2019-03-01T11:02:24.297Z,17.11
2019-03-01T11:03:24.871Z,17.05
2019-03-01T11:04:25.445Z,17.02
2019-03-01T11:05:26.060Z,17.02
2019-03-01T11:06:26.633Z,17.01
2019-03-01T11:07:27.205Z,17.05
2019-03-01T11:08:27.781Z,17.05
2019-03-01T11:09:28.354Z,17.09
2019-03-01T11:10:28.976Z,17.02
2019-03-01T11:11:29.548Z,17.04
2019-03-01T11:12:30.125Z,17.05
2019-03-01T11:13:30.696Z,17.05
2019-03-01T11:14:31.272Z,17.04
2019-03-01T11:15:31.843Z,17.08
2019-03-01T11:16:32.448Z,17.05
2019-03-01T11:17:33.046Z,17.08
2019-03-01T11:18:33.618Z,17.08
2019-03-01T11:19:34.195Z,17.05
2019-03-01T11:20:34.772Z,17.04
2019-03-01T11:21:35.348Z,17.02
2019-03-01T11:22:35.921Z,17.08
2019-03-01T11:23:36.547Z,17.06
2019-03-01T11:24:37.119Z,17.02
2019-03-01T11:25:37.692Z,17.04
2019-03-01T11:26:38.414Z,16.96
2019-03-01T11:27:38.985Z,16.96
2019-03-01T11:28:39.559Z,17.02
2019-03-01T11:29:40.184Z,17.09
2019-03-01T11:30:40.760Z,17.02
2019-03-01T11:31:41.336Z,16.96
2019-03-01T11:32:41.959Z,16.99
2019-03-01T11:33:42.534Z,16.97
2019-03-01T11:34:43.111Z,16.96
2019-03-01T11:35:43.687Z,16.99
2019-03-01T11:36:44.315Z,16.94
2019-03-01T11:37:44.922Z,16.96
2019-03-01T11:38:45.540Z,16.97
2019-03-01T11:39:46.112Z,17.01
2019-03-01T11:40:46.687Z,17.01
2019-03-01T11:41:47.259Z,17.06
2019-03-01T11:42:47.833Z,17.08
2019-03-01T11:43:53.459Z,17.08
2019-03-01T11:44:54.031Z,17.04
2019-03-01T11:45:54.608Z,17.12
2019-03-01T11:46:55.181Z,17.06
2019-03-01T11:47:55.804Z,17.12
2019-03-01T11:48:56.432Z,17.05
2019-03-01T11:49:57.002Z,17.11
2019-03-01T11:50:57.577Z,17.14
2019-03-01T11:51:58.151Z,17.12
2019-03-01T11:52:58.726Z,17.22
2019-03-01T11:53:59.301Z,17.15
2019-03-01T11:54:59.922Z,17.19
2019-03-01T11:56:00.499Z,17.22
2019-03-01T11:57:01.074Z,17.11
2019-03-01T11:58:01.651Z,17.15
2019-03-01T11:59:02.224Z,17.20
2019-03-01T12:00:02.852Z,17.11
2019-03-01T12:01:03.421Z,17.08
2019-03-01T12:02:03.993Z,17.19
2019-03-01T12:03:04.566Z,17.16
2019-03-01T12:04:05.139Z,17.22
2019-03-01T12:05:05.764Z,17.24
2019-03-01T12:06:06.339Z,17.24
2019-03-01T12:07:06.914Z,17.23
2019-03-01T12:08:07.538Z,17.20
2019-03-01T12:09:08.113Z,17.26
2019-03-01T12:10:08.686Z,17.23
2019-03-01T12:11:09.261Z,17.29
2019-03-01T12:12:09.837Z,17.26
2019-03-01T12:13:10.410Z,17.24
2019-03-01T12:14:11.034Z,17.26
2019-03-01T12:15:11.610Z,17.26
2019-03-01T12:16:12.186Z,17.33
2019-03-01T12:17:12.760Z,17.39
2019-03-01T12:18:13.334Z,17.31
2019-03-01T12:19:13.908Z,17.31
2019-03-01T12:20:14.532Z,17.30
2019-03-01T12:21:15.107Z,17.36
2019-03-01T12:22:17.397Z,17.34
2019-03-01T12:23:17.297Z,17.36
2019-03-01T12:24:17.873Z,17.46
2019-03-01T12:25:18.454Z,17.39
2019-03-01T12:26:19.066Z,17.41
2019-03-01T12:27:19.638Z,17.42
2019-03-01T12:28:20.214Z,17.46
2019-03-01T12:29:20.838Z,17.46
2019-03-01T12:30:21.514Z,17.46
2019-03-01T12:31:22.135Z,17.44
2019-03-01T12:32:22.712Z,17.30
2019-03-01T12:33:23.287Z,17.39
2019-03-01T12:34:23.863Z,17.44
2019-03-01T12:35:24.441Z,17.44
2019-03-01T12:36:25.013Z,17.44
2019-03-01T12:37:25.638Z,17.34
2019-03-01T12:38:26.213Z,17.31
2019-03-01T12:39:26.788Z,17.36
2019-03-01T12:40:27.366Z,17.46
2019-03-01T12:41:28.032Z,17.41
2019-03-01T12:42:28.608Z,17.44
2019-03-01T12:43:29.183Z,17.36
2019-03-01T12:44:29.759Z,17.33
2019-03-01T12:45:30.335Z,17.48
2019-03-01T12:46:30.908Z,17.38
2019-03-01T12:47:31.482Z,17.38
2019-03-01T12:48:32.060Z,17.27
2019-03-01T12:49:32.784Z,17.31
2019-03-01T12:50:33.362Z,17.29
2019-03-01T12:51:33.978Z,17.34
2019-03-01T12:52:34.600Z,17.38
2019-03-01T12:53:35.178Z,17.38
2019-03-01T12:54:35.747Z,17.33
2019-03-01T12:55:36.373Z,17.33
2019-03-01T12:56:36.947Z,17.34
2019-03-01T12:57:37.521Z,17.34
2019-03-01T12:58:38.097Z,17.31
2019-03-01T12:59:38.671Z,17.31
2019-03-01T13:00:39.244Z,17.33